Time;durP1;ratioP1;P1;durP2;ratioP2;P2;SDS_P1;SDS_P2;PMS_P1;PMS_P2;Temp;Humidity;BMP_temperature;BMP_pressure;BME280_temperature;BME280_humidity;BME280_pressure;Samples;Min_cycle;Max_cycle;Signal;HPM_P1;HPM_P2
2023/06/23 16:13:08;;;;;;;13.43;6.65;;;;;;;34.50;41.81;99936.46;1519895;85;28495;-78
2023/06/23 16:15:34;;;;;;;17.20;7.97;;;;;;;34.23;42.12;99930.09;1492758;86;21477;-79
2023/06/23 16:18:00;;;;;;;15.68;7.58;;;;;;;34.01;42.22;99932.34;1496786;86;22435;-79
2023/06/23 16:20:27;;;;;;;12.37;7.78;;;;;;;33.81;42.46;99932.32;1499855;84;21396;-79
2023/06/23 16:22:53;;;;;;;11.35;7.50;;;;;;;33.65;42.84;99937.95;1491888;84;21424;-79
2023/06/23 16:25:19;;;;;;;17.57;7.83;;;;;;;33.46;43.48;99931.25;1498650;86;21577;-80
2023/06/23 16:27:45;;;;;;;22.87;7.33;;;;;;;33.28;43.86;99928.95;1490324;86;23131;-79
2023/06/23 16:30:12;;;;;;;16.40;7.92;;;;;;;33.16;44.03;99941.05;1500424;85;21424;-80
2023/06/23 16:32:38;;;;;;;16.57;8.35;;;;;;;33.04;44.26;99949.81;1476975;86;21551;-79
2023/06/23 16:35:06;;;;;;;15.08;8.15;;;;;;;32.96;44.52;99956.00;1427397;87;21406;-78
2023/06/23 16:37:32;;;;;;;13.72;8.30;;;;;;;32.86;44.71;99956.20;1463289;88;21345;-79
2023/06/23 16:39:58;;;;;;;13.55;6.67;;;;;;;32.77;44.69;99956.96;1489389;87;22301;-79
2023/06/23 16:42:25;;;;;;;17.60;7.70;;;;;;;32.68;45.16;99967.00;1477493;88;21577;-79
2023/06/23 16:44:51;;;;;;;13.83;8.08;;;;;;;32.55;45.64;99978.23;1463709;88;21433;-80
2023/06/23 16:47:18;;;;;;;20.15;7.85;;;;;;;32.40;46.38;99991.38;1489935;87;21632;-80
2023/06/23 16:49:44;;;;;;;14.60;8.50;;;;;;;32.23;47.07;99999.64;1485510;87;22851;-80
2023/06/23 16:52:11;;;;;;;17.37;7.37;;;;;;;32.04;47.52;99991.49;1490110;87;21629;-80
2023/06/23 16:54:37;;;;;;;21.65;8.30;;;;;;;31.86;47.79;99987.68;1462096;88;21826;-80
2023/06/23 16:57:04;;;;;;;12.28;8.08;;;;;;;31.68;48.23;99994.83;1484122;87;22421;-80
2023/06/23 16:59:30;;;;;;;17.77;8.08;;;;;;;31.47;48.93;100006.63;1490218;88;21455;-79
2023/06/23 17:01:58;;;;;;;33.00;9.40;;;;;;;31.24;49.80;100028.00;1483539;88;21491;-80
2023/06/23 17:04:24;;;;;;;25.20;9.85;;;;;;;30.99;50.88;100047.75;1485569;87;21461;-81
2023/06/23 17:06:50;;;;;;;17.32;8.70;;;;;;;30.75;51.69;100061.93;1493418;87;21425;-79
2023/06/23 17:09:16;;;;;;;18.05;9.58;;;;;;;30.52;53.44;100064.36;1459707;88;21610;-79
2023/06/23 17:11:43;;;;;;;14.35;9.20;;;;;;;30.30;53.81;100069.52;1480444;88;22365;-79
2023/06/23 17:14:12;;;;;;;18.85;7.90;;;;;;;30.09;55.05;100076.47;1489100;87;21551;-81
2023/06/23 17:16:38;;;;;;;17.45;8.70;;;;;;;29.93;55.95;100070.08;1482236;88;22524;-82
2023/06/23 17:19:05;;;;;;;11.95;8.25;;;;;;;29.78;56.62;100077.28;1486187;87;22408;-81
2023/06/23 17:21:31;;;;;;;15.93;9.28;;;;;;;29.64;57.20;100079.83;1492291;87;21492;-80
2023/06/23 17:23:58;;;;;;;21.77;9.38;;;;;;;29.56;57.76;100079.58;1488818;87;21603;-83
2023/06/23 17:26:24;;;;;;;18.32;9.85;;;;;;;29.51;58.14;100080.96;1461202;88;21544;-83
2023/06/23 17:28:50;;;;;;;25.65;9.50;;;;;;;29.43;58.48;100078.27;1480499;87;21566;-84
2023/06/23 17:31:17;;;;;;;17.48;8.25;;;;;;;29.38;58.96;100076.41;1490088;87;22384;-83
2023/06/23 17:33:43;;;;;;;33.08;9.78;;;;;;;29.34;59.66;100075.88;1476776;87;21580;-83
2023/06/23 17:36:09;;;;;;;15.15;8.75;;;;;;;29.27;59.86;100084.92;1494071;87;21463;-83
2023/06/23 17:38:36;;;;;;;14.30;8.25;;;;;;;29.19;60.15;100084.39;1482334;87;21515;-83
2023/06/23 17:41:02;;;;;;;17.15;8.53;;;;;;;29.11;60.85;100094.50;1482875;87;21737;-83
2023/06/23 17:43:28;;;;;;;18.70;8.58;;;;;;;29.01;62.06;100117.69;1490319;87;21455;-85
2023/06/23 17:45:55;;;;;;;51.40;7.55;;;;;;;28.85;64.32;100167.83;1462050;88;21603;-85
2023/06/23 17:48:21;;;;;;;45.58;7.62;;;;;;;28.16;53.24;100190.41;1487529;87;21551;-84
2023/06/23 17:50:47;;;;;;;30.92;7.45;;;;;;;27.54;52.49;100212.52;1502052;87;22477;-85
2023/06/23 17:53:14;;;;;;;39.55;8.03;;;;;;;26.97;53.46;100235.79;1476981;87;22333;-86
2023/06/23 17:55:40;;;;;;;29.77;6.95;;;;;;;26.51;54.51;100257.13;1479794;87;21646;-83
2023/06/23 17:58:06;;;;;;;115.40;11.48;;;;;;;26.00;55.59;100253.86;1466327;88;22094;-83
2023/06/23 18:00:32;;;;;;;26.87;6.92;;;;;;;25.39;55.81;100246.28;1434707;89;22033;-83
2023/06/23 18:03:00;;;;;;;33.90;6.90;;;;;;;24.98;56.88;100241.06;1487002;87;21455;-84
2023/06/23 18:05:26;;;;;;;25.85;6.42;;;;;;;24.59;57.06;100247.45;1490541;87;21455;-84
2023/06/23 18:07:53;;;;;;;12.85;5.17;;;;;;;24.41;56.49;100247.12;1490137;87;21461;-83
2023/06/23 18:10:20;;;;;;;26.95;5.65;;;;;;;24.09;56.57;100242.20;1480088;87;21477;-86
2023/06/23 18:12:47;;;;;;;13.70;5.08;;;;;;;23.98;56.82;100260.09;1462085;88;22556;-85
2023/06/23 18:15:13;;;;;;;18.20;4.72;;;;;;;23.78;57.17;100261.86;1490961;87;21514;-81
2023/06/23 18:17:40;;;;;;;30.35;5.25;;;;;;;23.60;57.26;100267.39;1475518;87;21521;-83
2023/06/23 18:20:07;;;;;;;17.85;4.37;;;;;;;23.45;58.26;100288.64;1481958;87;21419;-84
2023/06/23 18:22:34;;;;;;;15.25;4.83;;;;;;;23.35;58.93;100314.37;1484765;87;21551;-84
2023/06/23 18:25:00;;;;;;;24.20;4.90;;;;;;;23.28;59.02;100310.16;1489109;87;21448;-83
2023/06/23 18:27:26;;;;;;;15.03;4.95;;;;;;;23.24;59.21;100313.83;1482495;88;21617;-84
2023/06/23 18:29:52;;;;;;;14.05;4.65;;;;;;;23.19;59.61;100314.55;1460823;88;21448;-83
2023/06/23 18:32:43;;;;;;;15.85;6.17;;;;;;;23.12;60.51;100304.91;1479347;87;22085;-84
2023/06/23 18:34:59;;;;;;;17.12;4.03;;;;;;;23.02;61.07;100296.55;1489732;87;21535;-84
2023/06/23 18:37:26;;;;;;;13.10;5.33;;;;;;;22.96;60.65;100304.55;1494319;87;21425;-84
2023/06/23 18:39:53;;;;;;;10.80;4.58;;;;;;;22.86;60.92;100315.04;1485794;88;21633;-82
2023/06/23 18:42:20;;;;;;;24.40;6.08;;;;;;;22.78;61.64;100330.20;1484892;87;21514;-83
2023/06/23 18:44:46;;;;;;;18.67;4.78;;;;;;;22.62;62.82;100374.84;1488273;87;21644;-83
2023/06/23 18:47:15;;;;;;;8.15;4.30;;;;;;;22.37;64.09;100370.91;1484803;88;22521;-82
2023/06/23 18:49:41;;;;;;;15.75;4.37;;;;;;;22.37;64.09;100370.91;1486675;88;22574;-82
2023/06/23 18:52:08;;;;;;;20.60;6.42;;;;;;;22.32;65.05;100405.81;1494906;87;21514;-83
2023/06/23 18:54:34;;;;;;;13.60;4.53;;;;;;;22.14;66.48;100405.79;1487142;87;21433;-82
2023/06/23 18:57:05;;;;;;;17.40;4.37;;;;;;;21.87;67.57;100385.87;1461377;88;21485;-82
2023/06/23 18:59:31;;;;;;;11.33;3.87;;;;;;;21.87;67.57;100385.87;1478224;87;21658;-82
2023/06/23 19:01:58;;;;;;;6.72;3.10;;;;;;;21.69;68.72;100418.14;1484002;87;21544;-83
2023/06/23 19:04:24;;;;;;;11.12;2.60;;;;;;;21.64;68.52;100517.12;1457240;88;21669;-82
2023/06/23 19:06:50;;;;;;;37.38;5.22;;;;;;;21.60;68.85;100554.41;1443956;88;22394;-83
2023/06/23 19:09:16;;;;;;;13.53;2.70;;;;;;;21.39;72.85;100562.84;1489474;87;21580;-83
2023/06/23 19:11:49;;;;;;;10.72;2.42;;;;;;;21.08;77.83;100550.12;1486926;87;21584;-84
2023/06/23 19:14:15;;;;;;;11.50;2.50;;;;;;;20.96;83.03;100560.72;1471383;87;22476;-84
2023/06/23 19:16:48;;;;;;;15.03;3.47;;;;;;;20.89;85.84;100555.37;1460175;88;21464;-83
2023/06/23 19:19:14;;;;;;;16.45;4.33;;;;;;;20.83;89.84;100545.95;1468448;88;21612;-81
2023/06/23 19:21:42;;;;;;;19.80;5.17;;;;;;;20.69;96.76;100527.20;1470010;88;21537;-83
2023/06/23 19:24:08;;;;;;;16.93;4.78;;;;;;;20.51;100.00;100544.46;1467901;88;22496;-82
2023/06/23 19:26:34;;;;;;;19.93;5.13;;;;;;;20.29;98.95;100531.28;1471340;88;22030;-80
2023/06/23 19:29:01;;;;;;;21.95;5.72;;;;;;;20.21;99.01;100526.64;1475067;87;21514;-79
2023/06/23 19:31:27;;;;;;;23.70;6.62;;;;;;;20.23;100.00;100528.09;1468666;88;22453;-78
2023/06/23 19:33:53;;;;;;;26.80;5.70;;;;;;;20.25;100.00;100521.14;1475453;87;21433;-79
2023/06/23 19:36:19;;;;;;;29.52;7.70;;;;;;;20.29;100.00;100536.66;1498898;87;21544;-79
2023/06/23 19:38:46;;;;;;;14.95;5.47;;;;;;;20.29;99.83;100543.38;1469500;88;21478;-79
2023/06/23 19:41:12;;;;;;;18.67;5.35;;;;;;;20.28;100.00;100556.52;1471698;88;21500;-79
2023/06/23 19:43:38;;;;;;;17.15;4.72;;;;;;;20.26;100.00;100546.48;1468118;88;21485;-79
2023/06/23 19:46:04;;;;;;;10.45;4.53;;;;;;;20.20;100.00;100535.22;1465656;88;21655;-79
2023/06/23 19:48:31;;;;;;;13.35;4.33;;;;;;;20.14;100.00;100498.44;1464458;88;21472;-81
2023/06/23 19:50:57;;;;;;;13.80;4.92;;;;;;;20.15;100.00;100450.37;1475856;88;21448;-80
2023/06/23 19:53:23;;;;;;;20.75;4.67;;;;;;;20.13;100.00;100414.83;1469423;88;22440;-81
2023/06/23 19:55:50;;;;;;;15.23;5.50;;;;;;;20.11;100.00;100437.56;1474172;88;21486;-80
2023/06/23 19:58:19;;;;;;;20.85;5.62;;;;;;;20.06;100.00;100459.17;1495588;87;21581;-82
2023/06/23 20:00:47;;;;;;;18.50;5.22;;;;;;;20.06;100.00;100454.33;1464087;87;21456;-80
2023/06/23 20:03:13;;;;;;;13.00;4.90;;;;;;;20.08;100.00;100468.35;1473154;88;21456;-80
2023/06/23 20:05:39;;;;;;;9.80;3.80;;;;;;;20.11;100.00;100467.97;1482724;86;21626;-81
2023/06/23 20:08:05;;;;;;;18.48;4.72;;;;;;;20.13;100.00;100472.59;1467604;88;21449;-80
2023/06/23 20:10:34;;;;;;;10.00;4.70;;;;;;;20.08;100.00;100468.35;1471306;88;22337;-79
2023/06/23 20:13:00;;;;;;;20.25;5.42;;;;;;;20.06;100.00;100451.64;1507432;86;21544;-79
2023/06/23 20:15:27;;;;;;;13.13;4.55;;;;;;;20.07;100.00;100450.59;1470071;88;21515;-78
2023/06/23 20:17:53;;;;;;;8.50;4.33;;;;;;;20.11;100.00;100445.12;1469773;88;22056;-79
2023/06/23 20:20:19;;;;;;;13.32;4.75;;;;;;;20.13;100.00;100434.98;1473833;87;21454;-80
2023/06/23 20:22:45;;;;;;;13.72;5.35;;;;;;;20.09;100.00;100429.73;1480851;87;21426;-79
2023/06/23 20:25:13;;;;;;;23.73;5.87;;;;;;;20.05;100.00;100424.45;1500230;87;21426;-79
2023/06/23 20:27:39;;;;;;;13.32;5.20;;;;;;;20.05;100.00;100415.90;1472454;88;22342;-79
2023/06/23 20:30:08;;;;;;;14.98;5.58;;;;;;;20.05;100.00;100419.08;1465294;88;22006;-79
2023/06/23 20:32:34;;;;;;;14.15;4.67;;;;;;;20.04;100.00;100409.38;1503753;86;21478;-79
2023/06/23 20:35:00;;;;;;;14.45;5.42;;;;;;;20.14;100.00;100408.44;1473173;88;21641;-80
2023/06/23 20:37:27;;;;;;;14.63;5.47;;;;;;;20.18;100.00;100419.05;1452550;88;22396;-79
2023/06/23 20:39:53;;;;;;;12.93;6.30;;;;;;;20.24;100.00;100415.52;1468996;88;21449;-80
2023/06/23 20:42:19;;;;;;;12.68;6.03;;;;;;;20.26;100.00;100405.39;1467065;88;21689;-81
2023/06/23 20:44:45;;;;;;;22.25;4.97;;;;;;;20.28;100.00;100401.98;1486626;87;22866;-81
2023/06/23 20:47:11;;;;;;;13.98;5.30;;;;;;;20.27;100.00;100382.84;1476167;88;21611;-80
2023/06/23 20:49:37;;;;;;;17.10;7.78;;;;;;;20.27;100.00;100357.31;1470695;88;21389;-80
2023/06/23 20:52:05;;;;;;;17.55;5.60;;;;;;;20.26;100.00;100338.21;1457831;88;21471;-80
2023/06/23 20:54:31;;;;;;;19.60;5.40;;;;;;;20.26;100.00;100334.19;1493379;86;21462;-78
2023/06/23 20:56:57;;;;;;;12.37;5.62;;;;;;;20.26;100.00;100319.41;1474634;88;21710;-79
2023/06/23 20:59:24;;;;;;;28.73;6.50;;;;;;;20.23;100.00;100310.95;1497384;86;22763;-80
2023/06/23 21:01:50;;;;;;;18.82;7.03;;;;;;;20.20;100.00;100276.45;1496906;87;21447;-79
2023/06/23 21:04:16;;;;;;;16.23;5.75;;;;;;;20.12;100.00;100256.02;1474108;88;21442;-80
2023/06/23 21:06:42;;;;;;;17.48;5.15;;;;;;;20.04;100.00;100248.20;1474021;88;21456;-80
2023/06/23 21:09:09;;;;;;;15.63;5.75;;;;;;;20.00;100.00;100245.64;1473581;88;23023;-80
2023/06/23 21:11:35;;;;;;;18.32;5.15;;;;;;;19.96;100.00;100244.41;1495155;86;21448;-79
2023/06/23 21:14:02;;;;;;;13.00;4.78;;;;;;;19.94;100.00;100243.30;1494898;86;21655;-80
2023/06/23 21:16:29;;;;;;;20.70;5.33;;;;;;;19.95;100.00;100243.59;1471464;88;21449;-80
2023/06/23 21:18:56;;;;;;;17.40;5.70;;;;;;;19.97;100.00;100228.62;1472792;88;22105;-80
2023/06/23 21:21:22;;;;;;;13.32;5.20;;;;;;;19.97;100.00;100225.93;1461729;88;21507;-82
2023/06/23 21:23:48;;;;;;;10.82;4.62;;;;;;;19.95;100.00;100226.13;1495631;86;21448;-80
2023/06/23 21:26:14;;;;;;;16.97;6.45;;;;;;;19.96;100.00;100235.01;1454398;88;21469;-79
2023/06/23 21:28:40;;;;;;;14.47;5.67;;;;;;;20.00;100.00;100249.67;1453320;88;21605;-77
2023/06/23 21:31:07;;;;;;;17.07;5.30;;;;;;;19.97;100.00;100247.42;1473889;88;21493;-77
2023/06/23 21:33:33;;;;;;;16.97;5.37;;;;;;;19.95;100.00;100254.86;1478067;88;22432;-76
2023/06/23 21:35:59;;;;;;;16.45;5.35;;;;;;;20.00;100.00;100261.77;1475593;88;21546;-77
2023/06/23 21:38:25;;;;;;;18.10;5.80;;;;;;;20.01;100.00;100256.16;1498549;86;21418;-78
2023/06/23 21:40:52;;;;;;;18.15;6.00;;;;;;;19.95;100.00;100233.37;1470323;88;22299;-79
2023/06/23 21:43:18;;;;;;;16.90;5.22;;;;;;;19.82;100.00;100223.00;1479126;88;21427;-77
2023/06/23 21:45:44;;;;;;;20.37;6.50;;;;;;;19.81;100.00;100204.41;1468202;88;21426;-78
2023/06/23 21:48:11;;;;;;;19.20;5.22;;;;;;;19.79;100.00;100207.81;1494844;86;21456;-79
2023/06/23 21:50:37;;;;;;;20.62;5.92;;;;;;;19.80;100.00;100242.52;1470720;88;22306;-79
2023/06/23 21:53:03;;;;;;;9.20;4.12;;;;;;;19.81;100.00;100248.19;1471923;88;21596;-76
2023/06/23 21:55:31;;;;;;;21.77;4.87;;;;;;;19.82;100.00;100251.69;1452120;88;21479;-76
2023/06/23 21:57:57;;;;;;;18.65;5.62;;;;;;;19.79;100.00;100232.83;1464222;88;21456;-77
2023/06/23 22:00:23;;;;;;;18.50;5.30;;;;;;;19.76;100.00;100238.59;1470746;87;21434;-77
2023/06/23 22:02:49;;;;;;;16.52;4.25;;;;;;;19.79;100.00;100247.59;1460259;88;21581;-77
2023/06/23 22:05:16;;;;;;;17.32;5.25;;;;;;;19.83;100.00;100276.19;1459712;88;21656;-80
2023/06/23 22:07:42;;;;;;;20.57;4.80;;;;;;;19.86;100.00;100309.84;1494044;86;21764;-80
2023/06/23 22:10:08;;;;;;;16.57;4.60;;;;;;;19.90;100.00;100364.78;1477269;87;21689;-79
2023/06/23 22:12:35;;;;;;;17.23;5.35;;;;;;;19.92;100.00;100436.58;1501426;87;21455;-80
2023/06/23 22:15:02;;;;;;;20.10;6.97;;;;;;;19.85;100.00;100582.93;1473547;88;23203;-78
2023/06/23 22:17:29;;;;;;;21.33;6.12;;;;;;;19.69;100.00;100576.63;1427890;90;21599;-77
2023/06/23 22:19:56;;;;;;;21.80;6.78;;;;;;;19.57;100.00;100542.80;1480503;87;22447;-78
2023/06/23 22:22:22;;;;;;;13.20;4.95;;;;;;;19.48;100.00;100549.37;1504429;87;21534;-78
2023/06/23 22:24:48;;;;;;;21.15;5.58;;;;;;;19.46;100.00;100652.92;1472938;88;21692;-78
2023/06/23 22:27:14;;;;;;;15.65;4.83;;;;;;;19.46;100.00;100669.55;1464457;88;21435;-77
2023/06/23 22:29:40;;;;;;;16.12;5.92;;;;;;;19.46;100.00;100656.12;1473366;87;21471;-78
2023/06/23 22:32:08;;;;;;;14.25;4.83;;;;;;;19.48;100.00;100673.70;1495975;87;21581;-77
2023/06/23 22:34:34;;;;;;;11.93;5.00;;;;;;;19.48;100.00;100697.00;1498200;87;21603;-77
2023/06/23 22:37:00;;;;;;;21.97;4.47;;;;;;;19.45;100.00;100675.44;1469803;88;21507;-77
2023/06/23 22:39:27;;;;;;;14.58;5.17;;;;;;;19.45;100.00;100662.50;1452075;88;21411;-78
2023/06/23 22:41:53;;;;;;;21.40;5.90;;;;;;;19.43;100.00;100663.24;1470068;88;21699;-77
2023/06/23 22:44:19;;;;;;;13.30;5.30;;;;;;;19.44;100.00;100667.05;1473835;87;21493;-77
2023/06/23 22:46:45;;;;;;;14.13;4.75;;;;;;;19.45;100.00;100668.73;1478291;87;21448;-77
2023/06/23 22:49:12;;;;;;;13.43;4.58;;;;;;;19.44;100.00;100660.86;1472413;88;21515;-77
2023/06/23 22:51:39;;;;;;;20.80;4.87;;;;;;;19.39;100.00;100656.93;1478250;88;21433;-77
2023/06/23 22:54:06;;;;;;;12.68;4.33;;;;;;;19.35;100.00;100636.87;1475657;88;22358;-76
2023/06/23 22:56:32;;;;;;;11.20;4.03;;;;;;;19.36;100.00;100638.55;1468932;88;21599;-76
2023/06/23 22:58:58;;;;;;;25.75;5.53;;;;;;;19.38;100.00;100641.84;1499120;87;21484;-77
2023/06/23 23:01:24;;;;;;;22.82;5.67;;;;;;;19.43;100.00;100639.09;1492146;87;22365;-77
2023/06/23 23:03:51;;;;;;;19.40;4.85;;;;;;;19.48;100.00;100636.61;1473360;88;21968;-79
2023/06/23 23:06:17;;;;;;;14.63;5.40;;;;;;;19.53;100.00;100642.20;1476778;87;21411;-77
2023/06/23 23:08:46;;;;;;;18.17;5.83;;;;;;;19.55;100.00;100630.76;1479758;87;21478;-76
2023/06/23 23:11:12;;;;;;;17.32;6.95;;;;;;;19.57;100.00;100620.66;1471635;87;21463;-78
2023/06/23 23:13:38;;;;;;;17.20;5.70;;;;;;;19.57;100.00;100607.23;1475469;87;22464;-78
2023/06/23 23:16:05;;;;;;;15.32;5.12;;;;;;;19.57;100.00;100610.74;1461058;88;21515;-76
2023/06/23 23:18:31;;;;;;;14.15;4.83;;;;;;;19.56;100.00;100625.69;1427416;90;22258;-78
2023/06/23 23:20:57;;;;;;;15.38;5.80;;;;;;;19.56;100.00;100648.51;1471241;87;22513;-78
2023/06/23 23:23:24;;;;;;;19.75;5.78;;;;;;;19.53;100.00;100642.20;1471741;88;21530;-78
2023/06/23 23:25:50;;;;;;;19.80;5.28;;;;;;;19.52;100.00;100641.38;1494838;87;21677;-79
2023/06/23 23:28:18;;;;;;;20.75;5.92;;;;;;;19.54;100.00;100639.85;1502062;87;21515;-79
2023/06/23 23:30:44;;;;;;;19.37;5.62;;;;;;;19.47;100.00;100642.48;1469097;88;21455;-77
2023/06/23 23:33:11;;;;;;;19.42;5.55;;;;;;;19.41;100.00;100631.73;1469562;88;21537;-77
2023/06/23 23:35:38;;;;;;;17.30;5.72;;;;;;;19.40;100.00;100617.50;1474078;88;21611;-77
2023/06/23 23:38:05;;;;;;;22.15;6.58;;;;;;;19.39;100.00;100604.59;1480828;88;22306;-77
2023/06/23 23:40:31;;;;;;;20.72;7.53;;;;;;;19.38;100.00;100596.73;1476545;87;22367;-77
2023/06/23 23:42:57;;;;;;;17.00;5.75;;;;;;;19.38;100.00;100580.11;1475124;88;21537;-77
2023/06/23 23:45:24;;;;;;;16.05;5.00;;;;;;;19.37;100.00;100566.39;1470557;88;21551;-77
2023/06/23 23:47:50;;;;;;;14.05;4.97;;;;;;;19.33;100.00;100559.78;1476500;87;21419;-77
2023/06/23 23:50:16;;;;;;;18.15;5.92;;;;;;;19.27;100.00;100555.20;1465282;87;21800;-77
2023/06/23 23:52:43;;;;;;;15.63;4.78;;;;;;;19.29;100.00;100541.08;1467992;88;21426;-76
2023/06/23 23:55:09;;;;;;;13.10;4.53;;;;;;;19.32;100.00;100531.28;1494915;87;22024;-78
2023/06/23 23:57:35;;;;;;;16.23;5.72;;;;;;;19.34;100.00;100518.50;1464807;88;21589;-77
